Time;durP1;ratioP1;P1;durP2;ratioP2;P2;SDS_P1;SDS_P2;PMS_P1;PMS_P2;Temp;Humidity;BMP_temperature;BMP_pressure;BME280_temperature;BME280_humidity;BME280_pressure;Samples;Min_cycle;Max_cycle;Signal;HPM_P1;HPM_P2
2023/10/27 00:01:21;;;;;;;9.83;3.37;;;;;;;16.74;91.70;93683.31;5073116;28;20194;-43
2023/10/27 00:03:47;;;;;;;9.93;3.57;;;;;;;16.66;91.74;93686.06;5050224;28;20191;-44
2023/10/27 00:06:17;;;;;;;6.20;3.30;;;;;;;16.69;92.07;93696.00;5050164;28;20191;-43
2023/10/27 00:08:44;;;;;;;10.67;3.17;;;;;;;16.69;92.25;93687.47;5050267;28;20606;-43
2023/10/27 00:11:10;;;;;;;6.90;3.30;;;;;;;16.60;92.55;93684.31;5066673;28;20194;-43
2023/10/27 00:13:37;;;;;;;5.77;3.47;;;;;;;16.58;92.72;93691.47;5082279;28;20247;-44
2023/10/27 00:16:08;;;;;;;6.10;3.03;;;;;;;16.57;92.58;93692.44;5090048;28;20193;-43
2023/10/27 00:18:35;;;;;;;11.80;3.73;;;;;;;16.53;92.79;93686.88;5090316;28;20182;-43
2023/10/27 00:21:01;;;;;;;5.50;3.30;;;;;;;16.41;93.12;93677.38;5072345;28;20288;-44
2023/10/27 00:23:32;;;;;;;10.47;3.27;;;;;;;16.44;93.43;93674.38;5069553;28;20183;-43
2023/10/27 00:25:58;;;;;;;8.37;3.30;;;;;;;16.42;93.43;93673.78;5069599;28;20186;-45
2023/10/27 00:28:25;;;;;;;7.33;3.50;;;;;;;15.85;93.68;93598.56;5076383;28;20217;-44
2023/10/27 00:30:52;;;;;;;4.97;3.03;;;;;;;16.35;93.93;93689.25;5090025;28;20205;-44
2023/10/27 00:33:19;;;;;;;5.03;3.60;;;;;;;16.40;93.62;93694.63;5089784;28;20186;-44
2023/10/27 00:35:45;;;;;;;5.63;2.93;;;;;;;16.39;93.68;93672.38;5090129;28;20189;-44
2023/10/27 00:38:12;;;;;;;8.20;3.93;;;;;;;16.37;93.70;93676.97;5089777;28;20196;-44
2023/10/27 00:40:40;;;;;;;6.20;3.37;;;;;;;16.43;93.89;93676.16;5071255;28;20309;-45
2023/10/27 00:43:07;;;;;;;12.77;3.87;;;;;;;16.46;93.53;93670.63;5070101;28;20179;-43
2023/10/27 00:45:34;;;;;;;3.97;3.00;;;;;;;16.46;93.53;93669.81;5069623;28;20197;-44
2023/10/27 00:48:02;;;;;;;6.87;2.70;;;;;;;16.44;93.59;93664.06;5069176;28;20194;-43
2023/10/27 00:50:29;;;;;;;9.87;3.10;;;;;;;16.40;94.07;93661.06;5069260;28;20724;-43
2023/10/27 00:52:56;;;;;;;6.77;3.50;;;;;;;16.37;94.31;93669.22;5068794;28;20194;-42
2023/10/27 00:55:23;;;;;;;4.73;2.90;;;;;;;16.26;94.61;93657.69;5069456;28;20186;-44
2023/10/27 00:57:53;;;;;;;3.60;3.20;;;;;;;16.32;94.73;93666.44;5070028;28;20178;-43
2023/10/27 01:00:20;;;;;;;9.37;3.23;;;;;;;16.36;94.44;93679.72;5070455;28;20195;-43
2023/10/27 01:02:47;;;;;;;12.70;3.43;;;;;;;16.34;94.55;93682.50;5068983;28;20201;-44
2023/10/27 01:05:15;;;;;;;7.00;2.90;;;;;;;16.40;94.46;93689.44;5069597;28;20529;-43
2023/10/27 01:07:42;;;;;;;9.17;2.80;;;;;;;16.40;94.32;93693.81;5068991;28;20614;-44
2023/10/27 01:10:09;;;;;;;6.10;3.23;;;;;;;16.39;94.35;93689.66;5078629;28;20541;-44
2023/10/27 01:12:36;;;;;;;8.60;3.13;;;;;;;16.37;94.43;93686.50;5087527;28;20568;-43
2023/10/27 01:15:04;;;;;;;7.93;3.87;;;;;;;16.35;94.71;93688.47;5089307;28;20181;-45
2023/10/27 01:17:31;;;;;;;13.43;4.10;;;;;;;16.25;94.96;93669.00;5089354;28;20609;-45
2023/10/27 01:19:58;;;;;;;9.10;3.70;;;;;;;16.34;94.89;93684.31;5089172;28;20177;-43
2023/10/27 01:22:24;;;;;;;9.00;3.43;;;;;;;16.32;95.04;93687.09;5069276;28;20638;-44
2023/10/27 01:24:55;;;;;;;6.23;2.97;;;;;;;16.33;94.98;93691.25;5068866;28;20197;-44
2023/10/27 01:27:22;;;;;;;7.30;3.43;;;;;;;16.30;95.15;93691.63;5069929;28;20253;-44
2023/10/27 01:29:48;;;;;;;8.13;3.70;;;;;;;16.28;95.58;93696.22;5069795;28;20213;-44
2023/10/27 01:32:15;;;;;;;7.47;3.40;;;;;;;16.27;95.93;93681.72;5069169;28;20783;-43
2023/10/27 01:34:42;;;;;;;7.47;4.17;;;;;;;16.02;95.83;93650.56;5069095;28;20190;-43
2023/10/27 01:37:09;;;;;;;8.03;3.97;;;;;;;16.22;96.20;93684.09;5069679;28;20212;-44
2023/10/27 01:39:35;;;;;;;5.63;3.20;;;;;;;16.21;96.23;93680.72;5069640;28;20267;-44
2023/10/27 01:42:04;;;;;;;12.33;3.93;;;;;;;16.24;96.29;93707.91;5094640;28;20189;-43
2023/10/27 01:44:31;;;;;;;10.43;4.00;;;;;;;16.24;96.05;93697.59;5099794;28;20186;-44
2023/10/27 01:47:00;;;;;;;8.20;3.73;;;;;;;16.18;96.37;93703.53;5094525;28;20204;-43
2023/10/27 01:49:27;;;;;;;9.63;3.77;;;;;;;16.14;96.51;93700.53;5089394;28;20221;-44
2023/10/27 01:51:54;;;;;;;8.73;3.90;;;;;;;16.15;96.49;93686.66;5089383;28;20225;-44
2023/10/27 01:54:21;;;;;;;8.03;3.10;;;;;;;16.17;96.47;93689.03;5088891;28;20204;-44
2023/10/27 01:56:48;;;;;;;9.67;3.60;;;;;;;16.21;96.27;93690.25;5068440;28;20286;-43
2023/10/27 01:59:16;;;;;;;13.13;4.43;;;;;;;16.21;96.10;93680.72;5069981;28;20194;-44
2023/10/27 02:01:43;;;;;;;5.40;3.43;;;;;;;15.99;96.24;93646.56;5068471;28;20190;-42
2023/10/27 02:04:09;;;;;;;10.77;3.93;;;;;;;16.22;96.37;93681.50;5068843;28;20251;-43
2023/10/27 02:06:36;;;;;;;7.83;4.00;;;;;;;16.22;96.12;93681.50;5085180;28;20209;-43
2023/10/27 02:09:03;;;;;;;7.20;3.07;;;;;;;16.11;96.18;93661.47;5092223;28;20182;-42
2023/10/27 02:11:30;;;;;;;10.27;4.13;;;;;;;16.25;95.94;93681.13;5075450;28;20194;-44
2023/10/27 02:13:57;;;;;;;9.07;3.50;;;;;;;16.23;96.16;93675.34;5073542;28;20183;-44
2023/10/27 02:16:25;;;;;;;10.33;3.80;;;;;;;16.20;96.51;93673.19;5072298;28;20217;-45
2023/10/27 02:18:52;;;;;;;9.27;3.60;;;;;;;16.16;97.08;93672.00;5072372;28;20231;-44
2023/10/27 02:21:19;;;;;;;6.60;3.70;;;;;;;16.07;97.18;93663.66;5072412;28;20182;-44
2023/10/27 02:23:45;;;;;;;6.50;3.97;;;;;;;16.17;97.00;93673.56;5072146;28;20201;-45
2023/10/27 02:26:13;;;;;;;5.10;3.00;;;;;;;16.17;96.68;93663.25;5072126;28;20277;-44
2023/10/27 02:28:40;;;;;;;11.47;4.00;;;;;;;16.19;96.91;93664.66;5072601;28;20707;-43
2023/10/27 02:31:07;;;;;;;4.93;3.17;;;;;;;16.19;97.02;93674.16;5071842;28;20226;-43
2023/10/27 02:33:36;;;;;;;9.37;3.57;;;;;;;16.20;96.95;93670.59;5072064;28;20237;-44
2023/10/27 02:36:03;;;;;;;10.73;3.60;;;;;;;16.20;97.23;93665.44;5072023;28;20202;-43
2023/10/27 02:38:30;;;;;;;12.50;4.40;;;;;;;16.14;97.39;93661.84;5084664;28;20580;-44
2023/10/27 02:40:56;;;;;;;7.80;3.80;;;;;;;16.15;97.29;93660.06;5092612;28;20246;-43
2023/10/27 02:43:23;;;;;;;5.03;3.73;;;;;;;16.14;97.49;93661.06;5088119;28;20190;-42
2023/10/27 02:46:00;;;;;;;14.47;4.50;;;;;;;15.68;97.76;93574.94;5071775;28;20209;-43
2023/10/27 02:48:27;;;;;;;7.27;3.73;;;;;;;16.14;97.94;93648.16;5071995;28;20278;-43
2023/10/27 02:50:56;;;;;;;7.73;4.60;;;;;;;16.12;98.06;93645.78;5071992;28;20263;-43
2023/10/27 02:53:22;;;;;;;10.63;4.03;;;;;;;16.09;98.29;93653.13;5073084;28;20190;-44
2023/10/27 02:55:49;;;;;;;8.10;3.90;;;;;;;16.14;98.22;93664.44;5091964;28;20196;-43
2023/10/27 02:58:16;;;;;;;10.23;3.83;;;;;;;16.16;98.10;93661.66;5089244;28;20198;-44
2023/10/27 03:00:44;;;;;;;11.90;3.50;;;;;;;16.14;97.86;93659.28;5092089;28;20201;-44
2023/10/27 03:03:11;;;;;;;11.63;4.57;;;;;;;16.19;97.62;93656.09;5091697;28;20189;-45
2023/10/27 03:05:38;;;;;;;7.23;3.90;;;;;;;16.16;97.93;93657.31;5091621;28;20189;-43
2023/10/27 03:08:06;;;;;;;10.23;4.27;;;;;;;16.16;98.08;93648.78;5091352;28;20193;-43
2023/10/27 03:10:33;;;;;;;12.13;4.37;;;;;;;16.20;98.14;93665.44;5090625;28;20229;-42
2023/10/27 03:13:00;;;;;;;12.37;4.30;;;;;;;16.20;97.93;93649.97;5091680;28;20691;-43
2023/10/27 03:15:27;;;;;;;7.00;3.80;;;;;;;16.21;98.04;93649.75;5089302;28;20225;-44
2023/10/27 03:17:54;;;;;;;12.23;4.30;;;;;;;16.21;97.85;93656.72;5075991;28;20187;-44
2023/10/27 03:20:21;;;;;;;5.53;3.77;;;;;;;16.24;97.75;93648.59;5070991;28;20569;-44
2023/10/27 03:22:47;;;;;;;12.63;4.40;;;;;;;16.27;97.73;93643.00;5071007;28;20658;-44
2023/10/27 03:25:16;;;;;;;9.83;4.53;;;;;;;16.13;97.89;93639.63;5071136;28;20183;-44
2023/10/27 03:27:44;;;;;;;11.43;3.90;;;;;;;16.21;98.34;93643.81;5071050;28;20237;-44
2023/10/27 03:30:11;;;;;;;8.93;4.17;;;;;;;16.20;98.28;93649.97;5071430;28;20228;-44
2023/10/27 03:32:38;;;;;;;7.57;3.63;;;;;;;16.18;98.16;93651.94;5071330;28;20190;-43
2023/10/27 03:35:07;;;;;;;6.57;3.60;;;;;;;16.20;98.28;93665.44;5070804;28;20197;-42
2023/10/27 03:37:33;;;;;;;10.53;3.77;;;;;;;16.19;98.22;93654.34;5091204;28;20185;-42
2023/10/27 03:40:01;;;;;;;8.07;3.73;;;;;;;16.07;98.85;93645.59;5090075;28;20193;-44
2023/10/27 03:42:29;;;;;;;7.70;3.60;;;;;;;16.00;99.35;93643.00;5091223;28;20193;-44
2023/10/27 03:44:56;;;;;;;10.77;4.50;;;;;;;15.93;99.54;93631.06;5089268;28;20198;-43
2023/10/27 03:47:23;;;;;;;8.37;4.33;;;;;;;16.03;99.49;93654.72;5091069;28;20213;-43
2023/10/27 03:49:50;;;;;;;11.43;4.53;;;;;;;16.01;99.25;93638.63;5091005;28;20206;-44
2023/10/27 03:52:17;;;;;;;11.23;4.27;;;;;;;16.04;99.34;93630.50;5090572;28;20190;-44
2023/10/27 03:54:43;;;;;;;8.43;4.43;;;;;;;16.04;99.28;93627.94;5088323;28;20645;-43
2023/10/27 03:57:10;;;;;;;10.70;3.93;;;;;;;15.98;99.15;93618.41;5069724;28;20179;-44
2023/10/27 03:59:38;;;;;;;9.93;4.60;;;;;;;16.03;99.41;93623.75;5079140;28;20546;-43
2023/10/27 04:02:06;;;;;;;11.07;4.33;;;;;;;15.92;99.87;93622.53;5091835;28;20193;-45
2023/10/27 04:04:33;;;;;;;10.70;4.20;;;;;;;16.01;99.71;93638.63;5092052;28;20572;-44
2023/10/27 04:07:01;;;;;;;7.50;3.57;;;;;;;16.03;99.67;93618.59;5076378;28;20205;-43
2023/10/27 04:09:27;;;;;;;9.47;4.30;;;;;;;15.96;99.60;93613.44;5070921;28;20265;-44
2023/10/27 04:11:54;;;;;;;9.90;5.13;;;;;;;15.97;99.80;93604.69;5078968;28;20178;-43
2023/10/27 04:14:21;;;;;;;8.03;4.13;;;;;;;15.95;99.93;93605.91;5088756;28;20194;-45
2023/10/27 04:16:49;;;;;;;7.40;3.53;;;;;;;15.85;100.00;93590.03;5089907;28;20194;-44
2023/10/27 04:19:16;;;;;;;13.27;4.37;;;;;;;15.92;100.00;93593.41;5089987;28;20205;-43
2023/10/27 04:21:42;;;;;;;6.50;3.60;;;;;;;15.78;100.00;93590.81;5090041;28;20198;-45
2023/10/27 04:24:09;;;;;;;7.33;3.80;;;;;;;15.86;100.00;93581.31;5089834;28;20661;-44
2023/10/27 04:26:36;;;;;;;8.17;3.63;;;;;;;15.80;100.00;93573.38;5088548;28;20190;-44
2023/10/27 04:29:03;;;;;;;10.67;4.17;;;;;;;15.88;100.00;93576.72;5083143;28;20721;-44
2023/10/27 04:31:30;;;;;;;6.23;3.77;;;;;;;15.89;100.00;93576.56;5071034;28;20627;-42
2023/10/27 04:33:58;;;;;;;12.03;4.13;;;;;;;15.93;100.00;93593.22;5075230;28;20189;-44
2023/10/27 04:36:25;;;;;;;5.37;3.67;;;;;;;15.93;100.00;93582.91;5081727;28;20240;-44
2023/10/27 04:38:52;;;;;;;7.63;4.67;;;;;;;15.70;100.00;93543.81;5069670;28;20186;-44
2023/10/27 04:41:19;;;;;;;10.93;4.40;;;;;;;15.85;100.00;93590.81;5070000;28;20186;-43
2023/10/27 04:43:46;;;;;;;7.10;4.20;;;;;;;15.87;100.00;93604.31;5069383;28;20236;-44
2023/10/27 04:46:12;;;;;;;8.63;4.33;;;;;;;15.92;100.00;93593.41;5070251;28;20194;-43
2023/10/27 04:48:39;;;;;;;14.20;5.23;;;;;;;15.93;100.00;93592.41;5069632;28;20198;-43
2023/10/27 04:51:09;;;;;;;8.30;3.47;;;;;;;15.85;100.00;93592.63;5069605;28;20237;-43
2023/10/27 04:53:36;;;;;;;8.67;3.67;;;;;;;15.87;100.00;93583.69;5087626;28;20182;-45
2023/10/27 04:56:04;;;;;;;6.53;3.73;;;;;;;15.96;100.00;93605.69;5089827;28;20270;-45
2023/10/27 04:58:30;;;;;;;10.93;4.27;;;;;;;16.08;100.00;93598.16;5089971;28;20190;-45
2023/10/27 05:00:57;;;;;;;11.27;4.23;;;;;;;16.18;100.00;93595.19;5087574;28;20194;-44
2023/10/27 05:03:24;;;;;;;26.87;5.67;;;;;;;16.25;100.00;93581.31;5071086;28;20665;-44
2023/10/27 05:05:51;;;;;;;9.63;4.50;;;;;;;16.30;99.92;93604.72;5069133;28;20193;-43
2023/10/27 05:08:19;;;;;;;15.17;5.07;;;;;;;16.35;99.93;93580.91;5069292;28;20186;-43
2023/10/27 05:10:47;;;;;;;7.27;4.53;;;;;;;16.40;99.52;93591.41;5068862;28;20217;-42
2023/10/27 05:13:14;;;;;;;10.37;4.63;;;;;;;16.45;99.40;93595.97;5069119;28;20205;-43
2023/10/27 05:15:41;;;;;;;11.77;4.10;;;;;;;16.44;98.96;93579.69;5068941;28;20251;-43
2023/10/27 05:18:07;;;;;;;11.43;4.40;;;;;;;16.53;98.67;93581.06;5069209;28;20191;-43
2023/10/27 05:20:38;;;;;;;10.07;4.50;;;;;;;16.55;99.16;93584.25;5069084;28;20201;-42
2023/10/27 05:23:04;;;;;;;8.57;4.17;;;;;;;16.72;98.23;93588.97;5067346;28;20214;-45
2023/10/27 05:25:34;;;;;;;11.60;4.17;;;;;;;16.75;97.61;93578.25;5050029;28;20548;-42
2023/10/27 05:28:01;;;;;;;9.83;4.47;;;;;;;16.79;97.11;93582.81;5057275;28;20218;-43
2023/10/27 05:30:28;;;;;;;8.97;4.37;;;;;;;16.81;96.65;93569.72;5079963;28;20217;-45
2023/10/27 05:32:55;;;;;;;16.50;4.77;;;;;;;16.83;96.11;93585.00;5069941;28;20209;-44
2023/10/27 05:35:21;;;;;;;10.50;4.30;;;;;;;16.88;95.83;93591.16;5068679;28;20214;-43
2023/10/27 05:37:48;;;;;;;8.77;4.30;;;;;;;16.91;95.59;93585.56;5068206;28;20596;-42
2023/10/27 05:40:15;;;;;;;13.73;4.80;;;;;;;16.95;95.27;93591.91;5069815;28;20286;-44
2023/10/27 05:42:43;;;;;;;13.47;4.47;;;;;;;17.01;94.91;93593.69;5072320;28;20198;-43
2023/10/27 05:45:11;;;;;;;13.87;4.60;;;;;;;17.05;94.60;93588.91;5073117;28;20214;-43
2023/10/27 05:47:39;;;;;;;9.30;4.00;;;;;;;17.07;94.60;93588.72;5072208;28;20216;-43
2023/10/27 05:50:07;;;;;;;13.17;4.77;;;;;;;17.11;94.46;93595.84;5071833;28;20240;-43
2023/10/27 05:52:34;;;;;;;16.10;4.43;;;;;;;17.17;94.01;93609.72;5072691;28;20202;-45
2023/10/27 05:55:01;;;;;;;9.57;4.30;;;;;;;17.22;93.71;93610.69;5073312;28;20622;-43
2023/10/27 05:57:28;;;;;;;6.63;4.33;;;;;;;17.26;93.74;93629.16;5071767;28;20190;-43
2023/10/27 05:59:56;;;;;;;9.37;4.90;;;;;;;17.34;93.65;93641.06;5072507;28;20193;-44
2023/10/27 06:02:23;;;;;;;8.13;4.50;;;;;;;17.36;93.35;93629.53;5072287;28;20198;-43
2023/10/27 06:04:53;;;;;;;18.50;5.67;;;;;;;17.40;93.13;93629.91;5074919;28;20187;-45
2023/10/27 06:07:20;;;;;;;19.37;4.80;;;;;;;17.44;92.67;93620.75;5080042;28;20190;-44
2023/10/27 06:09:47;;;;;;;9.83;4.13;;;;;;;17.46;92.50;93634.28;5081686;28;20216;-45
2023/10/27 06:12:15;;;;;;;10.30;4.27;;;;;;;17.47;92.28;93626.28;5072844;28;20711;-45
2023/10/27 06:14:44;;;;;;;8.47;4.43;;;;;;;17.54;91.72;93621.91;5072643;28;20189;-43
2023/10/27 06:17:13;;;;;;;15.10;5.17;;;;;;;17.56;91.18;93614.72;5072839;28;20239;-42
2023/10/27 06:19:40;;;;;;;14.57;4.60;;;;;;;17.65;90.73;93617.84;5069197;28;20715;-43
2023/10/27 06:22:09;;;;;;;14.67;4.97;;;;;;;17.73;90.68;93601.31;5071995;28;20660;-43
2023/10/27 06:24:35;;;;;;;9.37;4.27;;;;;;;17.90;90.91;93610.19;5071600;28;20228;-43
2023/10/27 06:27:03;;;;;;;11.87;5.03;;;;;;;18.16;89.40;93627.31;5071049;28;20226;-43
2023/10/27 06:29:29;;;;;;;17.13;4.93;;;;;;;18.38;87.85;93632.91;5073227;28;20212;-43
2023/10/27 06:31:56;;;;;;;11.27;4.60;;;;;;;18.74;86.68;93649.59;5068469;28;20230;-45
2023/10/27 06:34:24;;;;;;;10.77;4.17;;;;;;;19.03;85.05;93633.34;5070785;28;20194;-44
2023/10/27 06:36:51;;;;;;;7.87;4.00;;;;;;;19.16;83.69;93623.84;5071876;28;20198;-43
2023/10/27 06:39:18;;;;;;;10.60;4.37;;;;;;;19.19;83.76;93618.25;5070367;28;20201;-45
2023/10/27 06:41:46;;;;;;;12.37;4.73;;;;;;;19.24;82.30;93613.97;5071407;28;20197;-45
2023/10/27 06:44:13;;;;;;;11.47;4.83;;;;;;;19.15;82.64;93617.09;5070826;28;20186;-43
2023/10/27 06:46:41;;;;;;;11.60;4.60;;;;;;;19.09;83.33;93621.34;5071078;28;20684;-45
2023/10/27 06:49:07;;;;;;;9.87;4.40;;;;;;;19.07;83.85;93619.97;5070813;28;20754;-44
2023/10/27 06:51:36;;;;;;;17.03;5.67;;;;;;;19.05;82.86;93607.22;5071007;28;20789;-45
2023/10/27 06:54:03;;;;;;;11.00;5.37;;;;;;;19.02;82.69;93615.44;5071307;28;20206;-43
2023/10/27 06:56:30;;;;;;;18.42;5.45;;;;;;;18.90;82.88;93622.34;5071162;28;20229;-43
2023/10/27 06:58:58;;;;;;;11.20;4.05;;;;;;;18.91;82.58;93616.13;5071153;28;20206;-44
2023/10/27 07:01:25;;;;;;;13.97;4.10;;;;;;;18.92;82.86;93615.16;5073552;28;20194;-43
2023/10/27 07:03:52;;;;;;;11.87;4.30;;;;;;;18.91;83.13;93629.09;5073579;28;20202;-45
2023/10/27 07:06:18;;;;;;;14.63;4.37;;;;;;;18.84;83.18;93610.25;5069874;28;20198;-44
2023/10/27 07:08:47;;;;;;;14.07;4.33;;;;;;;18.95;83.24;93622.47;5068776;28;20199;-44
2023/10/27 07:11:14;;;;;;;10.53;5.03;;;;;;;19.01;82.95;93606.88;5070370;28;20222;-44
2023/10/27 07:13:41;;;;;;;10.30;4.47;;;;;;;19.10;82.72;93622.91;5070789;28;20309;-43
2023/10/27 07:16:08;;;;;;;6.77;4.40;;;;;;;19.20;82.19;93615.41;5068380;28;20186;-42
2023/10/27 07:18:34;;;;;;;9.53;4.47;;;;;;;19.27;80.93;93616.16;5070485;28;20195;-45
2023/10/27 07:21:03;;;;;;;9.83;3.97;;;;;;;19.26;80.90;93611.97;5070178;28;20201;-44
2023/10/27 07:23:31;;;;;;;16.93;4.53;;;;;;;19.18;81.70;93624.44;5070994;28;20244;-45
2023/10/27 07:25:59;;;;;;;14.23;4.70;;;;;;;19.15;81.72;93598.94;5070256;28;20202;-44
2023/10/27 07:28:25;;;;;;;8.13;4.50;;;;;;;19.16;81.27;93597.94;5073973;28;20230;-43
2023/10/27 07:30:52;;;;;;;22.07;4.87;;;;;;;19.12;81.21;93600.16;5069773;28;20207;-43
2023/10/27 07:33:19;;;;;;;11.93;4.60;;;;;;;19.13;81.06;93609.53;5069085;28;20186;-44
2023/10/27 07:35:47;;;;;;;11.43;5.57;;;;;;;19.21;80.91;93611.84;5070246;28;20242;-45
2023/10/27 07:38:14;;;;;;;11.00;4.30;;;;;;;19.31;81.09;93624.28;5069847;28;20256;-43
2023/10/27 07:40:43;;;;;;;11.73;4.70;;;;;;;19.33;81.07;93624.84;5067550;28;20198;-43
2023/10/27 07:43:11;;;;;;;9.40;4.20;;;;;;;19.40;81.02;93629.97;5069784;28;20206;-44
2023/10/27 07:45:38;;;;;;;16.05;5.60;;;;;;;19.38;80.67;93627.56;5070323;28;20198;-43
2023/10/27 07:48:05;;;;;;;10.30;4.38;;;;;;;19.48;80.46;93616.72;5070464;28;20965;-44
2023/10/27 07:50:32;;;;;;;13.63;4.87;;;;;;;19.55;80.40;93631.16;5069935;28;20190;-43
2023/10/27 07:52:59;;;;;;;15.98;4.68;;;;;;;19.62;79.81;93636.28;5069397;28;20202;-44
2023/10/27 07:55:26;;;;;;;12.57;4.60;;;;;;;19.70;79.11;93624.84;5070181;28;20194;-44
2023/10/27 07:57:53;;;;;;;12.93;5.20;;;;;;;19.76;78.81;93613.56;5069961;28;20662;-46
2023/10/27 08:00:21;;;;;;;6.97;5.25;;;;;;;19.94;79.09;93630.88;5069868;28;20187;-44
2023/10/27 08:02:51;;;;;;;16.60;5.50;;;;;;;20.03;78.89;93606.19;5068550;28;20206;-43
2023/10/27 08:05:18;;;;;;;11.23;5.30;;;;;;;20.15;77.93;93607.00;5069603;28;20289;-44
2023/10/27 08:07:45;;;;;;;15.88;5.68;;;;;;;20.25;77.67;93609.88;5069819;28;20198;-44
2023/10/27 08:10:12;;;;;;;12.50;5.75;;;;;;;20.38;76.70;93600.25;5070441;28;20559;-44
2023/10/27 08:12:39;;;;;;;16.17;6.05;;;;;;;20.59;75.92;93598.94;5069364;28;20228;-45
2023/10/27 08:15:06;;;;;;;10.07;5.57;;;;;;;20.72;74.93;93612.50;5069335;28;20607;-43
2023/10/27 08:17:35;;;;;;;13.77;5.35;;;;;;;20.34;74.40;93532.44;5066992;28;20245;-45
2023/10/27 08:20:02;;;;;;;9.73;5.00;;;;;;;20.88;73.19;93590.25;5070666;28;20195;-44
2023/10/27 08:22:29;;;;;;;7.97;4.70;;;;;;;20.88;72.61;93568.66;5069209;28;20194;-44
2023/10/27 08:24:56;;;;;;;12.40;4.97;;;;;;;21.13;71.92;93586.59;5070368;28;20186;-44
2023/10/27 08:27:23;;;;;;;17.42;5.75;;;;;;;21.26;71.06;93579.31;5070732;28;20217;-44
2023/10/27 08:29:53;;;;;;;12.38;5.88;;;;;;;21.33;69.97;93594.84;5069432;28;20194;-44
2023/10/27 08:32:21;;;;;;;8.13;3.58;;;;;;;21.35;68.84;93582.38;5069311;28;20229;-44
2023/10/27 08:34:50;;;;;;;9.02;3.35;;;;;;;21.38;67.36;93578.53;5068936;28;20228;-45
2023/10/27 08:37:17;;;;;;;7.35;2.80;;;;;;;21.46;67.95;93581.56;5069447;28;20249;-45
2023/10/27 08:39:44;;;;;;;11.23;3.83;;;;;;;21.59;67.47;93584.88;5069071;28;20218;-44
2023/10/27 08:42:11;;;;;;;6.30;3.03;;;;;;;21.71;66.54;93596.81;5068820;28;20194;-45
2023/10/27 08:44:40;;;;;;;6.05;3.47;;;;;;;21.85;65.62;93588.72;5068469;28;20198;-45
2023/10/27 08:47:07;;;;;;;6.90;4.05;;;;;;;21.92;64.15;93589.38;5069173;28;20607;-44
2023/10/27 08:49:34;;;;;;;10.77;3.38;;;;;;;21.86;63.58;93585.91;5068018;28;20198;-45
2023/10/27 08:52:02;;;;;;;10.20;4.68;;;;;;;21.92;64.05;93594.56;5068885;28;20697;-44
2023/10/27 08:54:30;;;;;;;11.98;4.85;;;;;;;21.90;64.60;93596.63;5068649;28;20217;-43
2023/10/27 08:56:56;;;;;;;10.63;4.10;;;;;;;21.91;63.89;93596.41;5068226;28;20217;-44
2023/10/27 08:59:23;;;;;;;8.15;3.40;;;;;;;21.93;63.64;93588.34;5068326;28;20214;-45
2023/10/27 09:01:50;;;;;;;8.80;3.53;;;;;;;21.91;63.27;93580.00;5070453;28;20194;-45
2023/10/27 09:04:19;;;;;;;12.13;3.47;;;;;;;21.99;63.29;93564.78;5068626;28;20187;-45
2023/10/27 09:06:46;;;;;;;6.60;2.47;;;;;;;22.06;63.33;93567.22;5068673;28;20206;-44
2023/10/27 09:09:14;;;;;;;4.05;2.13;;;;;;;22.14;61.52;93572.06;5068682;28;20589;-46
2023/10/27 09:11:42;;;;;;;3.28;1.70;;;;;;;22.23;60.94;93575.06;5068559;28;20210;-50
2023/10/27 09:14:19;;;;;;;4.63;1.85;;;;;;;22.24;60.44;93563.63;5067915;28;20205;-43
2023/10/27 09:16:46;;;;;;;5.88;2.20;;;;;;;22.34;59.65;93547.38;5068444;28;20205;-43
2023/10/27 09:19:21;;;;;;;5.07;2.10;;;;;;;22.44;59.44;93565.75;5068570;28;20183;-49
2023/10/27 09:21:48;;;;;;;8.38;2.30;;;;;;;22.54;59.06;93551.06;5068268;28;20190;-43
2023/10/27 09:24:23;;;;;;;3.22;1.40;;;;;;;22.63;58.26;93555.88;5068474;28;20193;-43
2023/10/27 09:26:50;;;;;;;5.53;1.70;;;;;;;22.73;58.55;93543.75;5067938;28;20235;-43
2023/10/27 09:29:17;;;;;;;4.13;1.58;;;;;;;22.89;58.22;93536.91;5068220;28;20205;-45
2023/10/27 09:31:44;;;;;;;6.05;2.03;;;;;;;23.01;58.03;93536.81;5068074;28;20243;-44
2023/10/27 09:34:18;;;;;;;6.75;2.15;;;;;;;23.08;58.10;93540.03;5068462;28;20193;-45
2023/10/27 09:36:46;;;;;;;4.90;2.40;;;;;;;22.99;57.43;93494.56;5068304;28;20600;-46
2023/10/27 09:39:16;;;;;;;2.92;2.03;;;;;;;23.27;57.57;93509.19;5068273;28;20634;-43
2023/10/27 09:41:48;;;;;;;3.35;2.08;;;;;;;23.36;56.69;93499.09;5065745;28;20194;-45
2023/10/27 09:44:17;;;;;;;3.83;2.08;;;;;;;23.46;56.61;93501.84;5069060;28;20182;-42
2023/10/27 09:46:52;;;;;;;4.22;2.28;;;;;;;23.56;55.54;93516.81;5067850;28;20267;-44
2023/10/27 09:49:28;;;;;;;4.55;1.98;;;;;;;23.63;55.34;93520.78;5068091;28;20204;-46
2023/10/27 09:51:59;;;;;;;4.10;2.00;;;;;;;23.72;54.58;93508.91;5068121;28;20206;-44
2023/10/27 09:54:31;;;;;;;4.10;2.35;;;;;;;23.77;53.77;93495.88;5068199;28;20225;-48
2023/10/27 09:57:00;;;;;;;2.63;1.80;;;;;;;23.71;54.53;93506.53;5068193;28;20240;-43
2023/10/27 09:59:33;;;;;;;5.75;2.03;;;;;;;23.65;54.94;93486.63;5068392;28;20665;-46
2023/10/27 10:02:05;;;;;;;3.38;2.15;;;;;;;23.53;54.51;93458.84;5068550;28;20222;-43
2023/10/27 10:05:01;;;;;;;4.30;2.00;;;;;;;23.62;54.41;93455.78;5067611;28;20186;-46
2023/10/27 10:07:29;;;;;;;5.43;1.85;;;;;;;23.80;53.46;93492.00;5005696;28;20196;-44
2023/10/27 10:09:56;;;;;;;3.45;2.03;;;;;;;23.31;54.08;93447.66;5005534;28;20266;-44
2023/10/27 10:12:25;;;;;;;2.70;1.58;;;;;;;23.62;54.21;93487.91;5005665;28;20227;-43
2023/10/27 10:14:50;;;;;;;4.50;2.15;;;;;;;23.75;54.18;93502.41;5006309;28;20284;-42
2023/10/27 10:17:36;;;;;;;2.88;1.83;;;;;;;23.73;53.79;93492.19;5005629;28;20200;-43
2023/10/27 10:20:03;;;;;;;2.20;1.70;;;;;;;23.69;54.46;93491.09;5006174;28;20187;-43
2023/10/27 10:22:52;;;;;;;2.92;2.00;;;;;;;23.70;54.25;93487.44;5007375;28;20355;-45
2023/10/27 10:25:28;;;;;;;3.35;1.63;;;;;;;23.73;54.84;93501.84;5008237;28;20200;-52
2023/10/27 10:28:29;;;;;;;7.60;1.90;;;;;;;23.83;53.44;93506.34;5012718;28;20234;-46
2023/10/27 10:31:26;;;;;;;5.03;1.60;;;;;;;23.74;53.21;93506.81;5012391;28;20250;-44
2023/10/27 10:34:12;;;;;;;3.67;1.98;;;;;;;23.70;53.74;93502.34;5013090;28;20763;-44
2023/10/27 10:36:40;;;;;;;6.65;2.25;;;;;;;23.79;53.86;93506.06;5010265;28;20211;-43
2023/10/27 10:39:10;;;;;;;5.38;1.67;;;;;;;23.88;52.84;93488.94;5009749;28;20774;-44
2023/10/27 10:41:58;;;;;;;4.65;1.70;;;;;;;23.94;52.55;93484.53;5010520;28;20224;-44
2023/10/27 10:44:29;;;;;;;2.72;1.60;;;;;;;23.98;52.60;93485.59;5051827;28;20198;-43
2023/10/27 10:46:56;;;;;;;6.55;1.92;;;;;;;23.99;53.37;93487.16;5072600;28;20193;-44
2023/10/27 10:49:24;;;;;;;2.65;1.95;;;;;;;23.97;52.83;93478.81;5072784;28;20213;-44
2023/10/27 10:51:53;;;;;;;5.07;1.75;;;;;;;24.07;52.89;93483.31;5072693;28;20237;-42
2023/10/27 10:54:20;;;;;;;2.30;1.88;;;;;;;24.02;51.55;93450.91;5069229;28;20290;-44
2023/10/27 10:56:47;;;;;;;5.35;1.98;;;;;;;24.25;51.76;93501.97;5070884;28;20197;-44
2023/10/27 10:59:21;;;;;;;3.45;1.88;;;;;;;24.27;50.97;93497.31;5071160;28;20266;-45
2023/10/27 11:01:56;;;;;;;4.60;2.17;;;;;;;24.24;51.32;93497.81;5070842;28;20296;-45
2023/10/27 11:04:43;;;;;;;3.72;1.83;;;;;;;24.19;50.92;93492.56;5070790;28;20633;-46
2023/10/27 11:07:10;;;;;;;1.70;1.60;;;;;;;24.17;51.60;93499.06;5071166;28;20226;-45
2023/10/27 11:09:37;;;;;;;2.13;1.70;;;;;;;24.10;51.45;93472.38;5071125;28;20193;-44
2023/10/27 11:12:04;;;;;;;7.82;2.47;;;;;;;24.14;51.56;93469.00;5070462;28;20206;-44
2023/10/27 11:14:40;;;;;;;3.45;1.60;;;;;;;24.08;51.43;93458.75;5070366;28;20198;-43
2023/10/27 11:17:11;;;;;;;3.10;1.70;;;;;;;24.10;51.73;93469.75;5067454;28;20888;-44
2023/10/27 11:19:52;;;;;;;2.08;1.88;;;;;;;24.11;52.16;93479.94;5070663;28;20217;-43
2023/10/27 11:22:23;;;;;;;5.05;1.65;;;;;;;24.18;52.00;93483.16;5070293;28;20229;-42
2023/10/27 11:24:50;;;;;;;3.50;1.77;;;;;;;24.25;52.81;93475.06;5067841;28;20700;-43
2023/10/27 11:27:24;;;;;;;4.72;2.10;;;;;;;24.26;52.87;93461.75;5070130;28;20221;-45
2023/10/27 11:30:00;;;;;;;4.38;1.95;;;;;;;24.32;52.95;93456.56;5070214;28;20616;-45
2023/10/27 11:32:29;;;;;;;2.50;1.60;;;;;;;24.23;53.30;93435.34;5070162;28;20260;-43
2023/10/27 11:34:56;;;;;;;1.83;1.60;;;;;;;24.38;53.10;93430.22;5071754;28;20182;-44